createdAt,value
2018-11-04T00:00:16.965Z,9.30
2018-11-04T00:02:45.252Z,9.20
2018-11-04T00:05:13.156Z,9.20
2018-11-04T00:07:40.926Z,9.20
2018-11-04T00:10:09.398Z,9.10
2018-11-04T00:15:12.046Z,9.10
2018-11-04T00:17:40.916Z,9.10
2018-11-04T00:20:10.649Z,9.10
2018-11-04T00:22:38.450Z,9.10
2018-11-04T00:25:06.842Z,9.10
2018-11-04T00:27:35.649Z,9.10
2018-11-04T00:30:03.463Z,9.10
2018-11-04T00:32:31.234Z,9.10
2018-11-04T00:34:58.983Z,9.10
2018-11-04T00:37:26.775Z,9.10
2018-11-04T00:39:54.552Z,9.10
2018-11-04T00:42:22.458Z,9.00
2018-11-04T00:44:50.246Z,9.00
2018-11-04T00:47:18.068Z,9.00
2018-11-04T00:49:45.891Z,9.00
2018-11-04T00:52:13.658Z,9.00
2018-11-04T00:54:41.389Z,9.00
2018-11-04T00:57:09.166Z,9.00
2018-11-04T00:59:36.885Z,9.00
2018-11-04T01:02:04.734Z,9.00
2018-11-04T01:04:32.515Z,9.00
2018-11-04T01:07:00.244Z,9.00
2018-11-04T01:09:28.617Z,9.00
2018-11-04T01:11:56.402Z,9.00
2018-11-04T01:14:24.625Z,9.00
2018-11-04T01:16:52.451Z,9.00
2018-11-04T01:19:20.206Z,9.00
2018-11-04T01:21:47.954Z,9.00
2018-11-04T01:24:15.774Z,9.00
2018-11-04T01:26:44.453Z,9.00
2018-11-04T01:29:12.232Z,9.00
2018-11-04T01:31:39.955Z,9.00
2018-11-04T01:34:07.719Z,8.90
2018-11-04T01:36:35.433Z,9.00
2018-11-04T01:39:03.970Z,9.00
2018-11-04T01:41:31.706Z,8.90
2018-11-04T01:44:00.406Z,9.00
2018-11-04T01:46:28.133Z,8.90
2018-11-04T01:48:55.967Z,9.00
2018-11-04T01:51:23.710Z,8.90
2018-11-04T01:53:51.451Z,8.90
2018-11-04T01:56:19.204Z,8.90
2018-11-04T01:58:46.962Z,8.90
2018-11-04T02:01:14.734Z,8.90
2018-11-04T02:03:42.501Z,8.90
2018-11-04T02:06:10.298Z,9.00
2018-11-04T02:08:38.034Z,9.00
2018-11-04T02:11:05.790Z,9.00
2018-11-04T02:13:33.541Z,9.00
2018-11-04T02:16:01.303Z,8.90
2018-11-04T02:18:29.070Z,9.00
2018-11-04T02:20:56.906Z,9.00
2018-11-04T02:23:24.722Z,8.90
2018-11-04T02:25:52.441Z,8.90
2018-11-04T02:28:20.291Z,8.90
2018-11-04T02:30:48.050Z,8.90
2018-11-04T02:33:15.813Z,8.80
2018-11-04T02:35:43.541Z,8.90
2018-11-04T02:38:11.285Z,8.90
2018-11-04T02:40:39.022Z,8.90
2018-11-04T02:43:06.790Z,8.80
2018-11-04T02:45:34.528Z,8.90
2018-11-04T02:48:02.298Z,8.80
2018-11-04T02:50:30.027Z,8.80
2018-11-04T02:52:57.827Z,8.70
2018-11-04T02:55:25.541Z,8.70
2018-11-04T02:57:53.543Z,8.70
2018-11-04T03:00:21.276Z,8.60
2018-11-04T03:02:49.022Z,8.60
2018-11-04T03:05:16.768Z,8.60
2018-11-04T03:07:44.542Z,8.60
2018-11-04T03:10:13.562Z,8.70
2018-11-04T03:12:41.357Z,8.60
2018-11-04T03:15:09.121Z,8.50
2018-11-04T03:17:36.901Z,8.50
2018-11-04T03:20:04.914Z,8.50
2018-11-04T03:22:32.677Z,8.40
2018-11-04T03:25:00.565Z,8.30
2018-11-04T03:27:28.672Z,8.30
2018-11-04T03:29:56.459Z,8.30
2018-11-04T03:32:24.267Z,8.20
2018-11-04T03:34:52.731Z,8.10
2018-11-04T03:37:20.501Z,8.00
2018-11-04T03:39:48.246Z,7.90
2018-11-04T03:42:16.037Z,7.90
2018-11-04T03:44:44.069Z,7.80
2018-11-04T03:47:11.854Z,7.70
2018-11-04T03:49:39.589Z,7.50
2018-11-04T03:52:07.842Z,7.50
2018-11-04T03:54:35.770Z,7.40
2018-11-04T03:57:03.590Z,7.30
2018-11-04T03:59:31.356Z,7.20
2018-11-04T04:01:59.125Z,7.20
2018-11-04T04:04:26.872Z,7.10
2018-11-04T04:06:54.666Z,7.10
2018-11-04T04:09:22.414Z,7.00
2018-11-04T04:11:50.182Z,7.00
2018-11-04T04:14:17.915Z,6.90
2018-11-04T04:16:45.830Z,6.80
2018-11-04T04:19:13.566Z,6.80
2018-11-04T04:21:41.333Z,6.80
2018-11-04T04:24:09.071Z,6.70
2018-11-04T04:26:36.825Z,6.60
2018-11-04T04:29:04.583Z,6.60
2018-11-04T04:31:32.321Z,6.50
2018-11-04T04:34:00.030Z,6.40
2018-11-04T04:36:28.529Z,6.40
2018-11-04T04:38:56.281Z,6.30
2018-11-04T04:41:23.973Z,6.30
2018-11-04T04:43:51.714Z,6.30
2018-11-04T04:46:19.471Z,6.20
2018-11-04T04:48:47.247Z,6.20
2018-11-04T04:51:15.457Z,6.10
2018-11-04T04:53:43.197Z,6.10
2018-11-04T04:56:10.902Z,6.00
2018-11-04T04:58:38.629Z,6.00
2018-11-04T05:03:40.633Z,5.90
2018-11-04T05:06:08.357Z,5.90
2018-11-04T05:08:36.631Z,5.80
2018-11-04T05:11:05.697Z,5.70
2018-11-04T05:13:35.521Z,5.70
2018-11-04T05:16:03.347Z,5.60
2018-11-04T05:18:31.078Z,5.60
2018-11-04T05:20:58.829Z,5.60
2018-11-04T05:23:26.560Z,5.50
2018-11-04T05:25:54.251Z,5.50
2018-11-04T05:28:22.038Z,5.50
2018-11-04T05:30:49.744Z,5.40
2018-11-04T05:33:17.487Z,5.40
2018-11-04T05:35:45.999Z,5.40
2018-11-04T05:38:13.790Z,5.50
2018-11-04T05:40:41.436Z,5.40
2018-11-04T05:43:11.125Z,5.40
2018-11-04T05:45:40.201Z,5.40
2018-11-04T05:48:09.155Z,5.40
2018-11-04T05:50:39.054Z,5.40
2018-11-04T05:53:08.371Z,5.40
2018-11-04T05:55:38.493Z,5.40
2018-11-04T05:58:06.272Z,5.50
2018-11-04T06:00:34.605Z,5.60
2018-11-04T06:03:02.346Z,5.60
2018-11-04T06:05:30.046Z,5.60
2018-11-04T06:08:12.869Z,5.60
2018-11-04T06:14:41.181Z,5.50
2018-11-04T06:20:28.823Z,5.50
2018-11-04T06:22:56.613Z,5.60
2018-11-04T06:25:38.912Z,5.60
2018-11-04T06:28:15.419Z,5.50
2018-11-04T06:31:03.801Z,5.50
2018-11-04T06:33:52.822Z,5.50
2018-11-04T06:36:24.075Z,5.50
2018-11-04T06:38:51.879Z,5.60
2018-11-04T06:41:19.621Z,5.70
2018-11-04T06:43:50.080Z,5.70
2018-11-04T06:46:17.914Z,5.80
2018-11-04T06:48:45.844Z,5.90
2018-11-04T06:51:14.209Z,5.90
2018-11-04T06:53:46.311Z,5.90
2018-11-04T06:59:20.811Z,5.90
2018-11-04T07:01:54.310Z,6.00
2018-11-04T07:04:28.518Z,6.10
2018-11-04T07:07:06.384Z,6.20
2018-11-04T07:09:36.976Z,6.30
2018-11-04T07:12:10.216Z,6.60
2018-11-04T07:14:49.997Z,7.10
2018-11-04T07:17:17.753Z,6.90
2018-11-04T07:19:45.714Z,7.00
2018-11-04T07:22:13.497Z,7.40
2018-11-04T07:24:41.202Z,8.00
2018-11-04T07:27:27.812Z,8.60
2018-11-04T07:29:56.042Z,8.90
2018-11-04T07:32:23.798Z,9.20
2018-11-04T07:34:51.517Z,9.40
2018-11-04T07:37:19.277Z,9.60
2018-11-04T07:39:47.011Z,10.40
2018-11-04T07:42:14.758Z,10.90
2018-11-04T07:44:42.462Z,11.00
2018-11-04T07:47:10.205Z,11.90
2018-11-04T07:49:37.913Z,12.90
2018-11-04T07:52:05.673Z,13.50
2018-11-04T07:54:33.373Z,13.70
2018-11-04T07:57:01.170Z,14.00
2018-11-04T07:59:28.879Z,14.00
2018-11-04T08:01:56.991Z,15.20
2018-11-04T08:04:24.704Z,15.30
2018-11-04T08:06:52.505Z,14.70
2018-11-04T08:09:20.223Z,15.20
2018-11-04T08:11:47.961Z,16.10
2018-11-04T08:14:15.674Z,17.10
2018-11-04T08:16:43.447Z,16.30
2018-11-04T08:19:11.366Z,16.60
2018-11-04T08:21:39.102Z,16.50
2018-11-04T08:24:06.893Z,15.70
2018-11-04T08:26:35.216Z,13.70
2018-11-04T08:29:03.442Z,12.80
2018-11-04T08:31:31.247Z,12.10
2018-11-04T08:33:59.006Z,11.50
2018-11-04T08:36:26.748Z,11.20
2018-11-04T08:38:56.053Z,11.30
2018-11-04T08:41:23.832Z,11.80
2018-11-04T08:43:51.544Z,13.80
2018-11-04T08:46:19.253Z,16.00
2018-11-04T08:48:47.163Z,17.30
2018-11-04T08:51:14.881Z,16.00
2018-11-04T08:53:42.616Z,14.80
2018-11-04T08:56:10.498Z,14.60
2018-11-04T08:58:38.269Z,14.50
2018-11-04T09:01:06.798Z,14.90
2018-11-04T09:03:35.323Z,15.30
2018-11-04T09:06:04.625Z,15.20
2018-11-04T09:08:33.874Z,15.60
2018-11-04T09:11:03.978Z,16.10
2018-11-04T09:13:33.682Z,15.60
2018-11-04T09:16:01.723Z,14.80
2018-11-04T09:18:31.409Z,14.40
2018-11-04T09:20:59.898Z,14.60
2018-11-04T09:23:28.630Z,13.80
2018-11-04T09:25:57.178Z,14.60
2018-11-04T09:28:27.248Z,15.20
2018-11-04T09:30:56.240Z,15.20
2018-11-04T09:33:25.685Z,16.50
2018-11-04T09:35:55.151Z,16.50
2018-11-04T09:38:24.845Z,16.80
2018-11-04T09:40:52.645Z,16.90
2018-11-04T09:43:42.362Z,17.20
2018-11-04T09:46:11.644Z,17.60
2018-11-04T09:48:41.352Z,18.60
2018-11-04T09:51:09.142Z,18.70
2018-11-04T09:53:36.923Z,19.80
2018-11-04T09:56:05.122Z,19.30
2018-11-04T09:58:32.829Z,19.70
2018-11-04T10:01:00.550Z,19.70
2018-11-04T10:03:28.286Z,19.80
2018-11-04T10:06:15.709Z,20.10
2018-11-04T10:08:43.706Z,20.20
2018-11-04T10:11:11.723Z,19.30
2018-11-04T10:13:44.365Z,19.10
2018-11-04T10:16:21.497Z,19.20
2018-11-04T10:18:50.465Z,19.30
2018-11-04T10:21:18.721Z,17.40
2018-11-04T10:23:46.658Z,16.60
2018-11-04T10:26:14.419Z,16.60
2018-11-04T10:28:52.992Z,16.00
2018-11-04T10:31:20.726Z,15.00
2018-11-04T10:33:49.615Z,16.40
2018-11-04T10:36:26.763Z,16.90
2018-11-04T10:38:54.709Z,18.10
2018-11-04T10:41:22.471Z,20.20
2018-11-04T10:43:50.542Z,21.40
2018-11-04T10:46:18.461Z,21.40
2018-11-04T10:48:46.291Z,20.90
2018-11-04T10:51:14.063Z,20.70
2018-11-04T10:53:41.914Z,20.40
2018-11-04T10:56:10.393Z,20.00
2018-11-04T10:58:38.177Z,19.50
2018-11-04T11:01:09.185Z,20.40
2018-11-04T11:03:37.658Z,19.80
2018-11-04T11:06:05.437Z,18.60
2018-11-04T11:08:33.162Z,17.80
2018-11-04T11:11:01.014Z,17.40
2018-11-04T11:13:29.033Z,17.40
2018-11-04T11:15:57.493Z,17.20
2018-11-04T11:18:25.207Z,17.50
2018-11-04T11:20:53.293Z,17.60
2018-11-04T11:23:23.069Z,18.40
2018-11-04T11:25:51.015Z,17.90
2018-11-04T11:28:18.773Z,18.30
2018-11-04T11:30:46.537Z,17.60
2018-11-04T11:33:14.265Z,18.10
2018-11-04T11:35:42.073Z,17.40
2018-11-04T11:38:09.833Z,17.80
2018-11-04T11:40:37.581Z,17.70
2018-11-04T11:43:05.297Z,17.40
2018-11-04T11:45:33.031Z,16.10
2018-11-04T11:48:01.102Z,16.10
2018-11-04T11:50:28.948Z,16.00
2018-11-04T11:52:57.154Z,16.10
2018-11-04T11:55:24.989Z,15.90
2018-11-04T11:57:52.737Z,15.60
2018-11-04T12:00:20.492Z,15.40
2018-11-04T12:02:48.374Z,15.50
2018-11-04T12:05:16.243Z,15.60
2018-11-04T12:07:46.152Z,15.60
2018-11-04T12:10:14.644Z,15.40
2018-11-04T12:12:43.920Z,15.30
2018-11-04T12:15:14.683Z,15.00
2018-11-04T12:17:43.974Z,15.00
2018-11-04T12:20:14.166Z,15.10
2018-11-04T12:22:43.815Z,15.10
2018-11-04T12:25:13.768Z,14.90
2018-11-04T12:27:41.889Z,14.70
2018-11-04T12:30:12.194Z,14.60
2018-11-04T12:32:41.909Z,14.50
2018-11-04T12:35:11.607Z,14.40
2018-11-04T12:37:42.103Z,14.40
2018-11-04T12:40:11.378Z,14.50
2018-11-04T12:42:39.160Z,14.30
2018-11-04T12:45:07.465Z,14.30
2018-11-04T12:47:35.422Z,14.30
2018-11-04T12:50:03.372Z,14.30
2018-11-04T12:52:31.117Z,14.40
2018-11-04T12:54:58.838Z,14.40
2018-11-04T12:57:26.609Z,14.20
2018-11-04T12:59:54.499Z,14.10
2018-11-04T13:02:22.276Z,14.10
2018-11-04T13:04:50.402Z,14.10
2018-11-04T13:07:18.154Z,14.00
2018-11-04T13:09:45.933Z,13.90
2018-11-04T13:12:13.873Z,13.80
2018-11-04T13:14:41.633Z,13.80
2018-11-04T13:17:09.374Z,13.70
2018-11-04T13:19:37.347Z,13.70
2018-11-04T13:22:05.064Z,13.70
2018-11-04T13:24:33.293Z,13.90
2018-11-04T13:27:01.113Z,13.90
2018-11-04T13:29:29.449Z,13.80
2018-11-04T13:31:57.298Z,14.00
2018-11-04T13:34:25.114Z,13.90
2018-11-04T13:36:52.962Z,13.80
2018-11-04T13:39:20.707Z,13.80
2018-11-04T13:41:48.413Z,13.70
2018-11-04T13:44:16.281Z,13.70
2018-11-04T13:46:44.018Z,13.70
2018-11-04T13:49:11.843Z,13.60
2018-11-04T13:51:40.042Z,13.70
2018-11-04T13:54:07.823Z,13.70
2018-11-04T13:56:35.541Z,13.60
2018-11-04T13:59:03.354Z,13.50
2018-11-04T14:01:32.066Z,13.40
2018-11-04T14:03:59.841Z,13.50
2018-11-04T14:06:27.899Z,13.50
2018-11-04T14:08:55.770Z,13.40
2018-11-04T14:11:23.494Z,13.40
2018-11-04T14:13:51.248Z,13.60
2018-11-04T14:16:19.061Z,13.60
2018-11-04T14:18:46.835Z,13.50
2018-11-04T14:21:14.554Z,13.40
2018-11-04T14:23:42.397Z,13.20
2018-11-04T14:26:10.196Z,13.20
2018-11-04T14:28:37.978Z,13.10
2018-11-04T14:31:05.849Z,13.20
2018-11-04T14:33:33.583Z,13.30
2018-11-04T14:36:01.374Z,13.20
2018-11-04T14:38:29.150Z,13.20
2018-11-04T14:40:56.870Z,13.10
2018-11-04T14:43:24.623Z,13.10
2018-11-04T14:45:52.385Z,13.10
2018-11-04T14:48:20.799Z,13.10
2018-11-04T14:50:48.640Z,13.10
2018-11-04T14:53:16.445Z,13.10
2018-11-04T14:55:44.165Z,13.00
2018-11-04T14:58:11.955Z,13.10
2018-11-04T15:00:39.802Z,13.00
2018-11-04T15:03:07.837Z,13.00
2018-11-04T15:05:35.569Z,13.00
2018-11-04T15:08:03.390Z,13.00
2018-11-04T15:10:31.195Z,13.10
2018-11-04T15:12:58.977Z,13.10
2018-11-04T15:15:26.688Z,12.90
2018-11-04T15:17:54.485Z,12.90
2018-11-04T15:20:22.277Z,12.90
2018-11-04T15:22:51.250Z,12.80
2018-11-04T15:25:20.233Z,12.70
2018-11-04T15:27:48.379Z,12.70
2018-11-04T15:30:16.221Z,12.50
2018-11-04T15:32:44.449Z,12.60
2018-11-04T15:35:13.049Z,12.60
2018-11-04T15:37:40.866Z,12.60
2018-11-04T15:40:09.808Z,12.50
2018-11-04T15:42:37.641Z,12.50
2018-11-04T15:45:06.085Z,12.40
2018-11-04T15:47:33.817Z,12.50
2018-11-04T15:50:01.675Z,12.50
2018-11-04T15:52:29.701Z,12.40
2018-11-04T15:54:57.595Z,12.40
2018-11-04T15:57:25.364Z,12.30
2018-11-04T15:59:53.101Z,12.20
2018-11-04T16:02:20.845Z,12.20
2018-11-04T16:04:48.577Z,12.00
2018-11-04T16:07:16.329Z,11.90
2018-11-04T16:09:44.689Z,11.90
2018-11-04T16:12:12.862Z,11.80
2018-11-04T16:14:40.878Z,11.70
2018-11-04T16:17:09.053Z,11.60
2018-11-04T16:19:36.774Z,11.50
2018-11-04T16:22:04.825Z,11.40
2018-11-04T16:24:32.534Z,11.30
2018-11-04T16:27:00.530Z,11.20
2018-11-04T16:29:28.385Z,11.20
2018-11-04T16:31:56.206Z,11.10
2018-11-04T16:34:23.885Z,11.00
2018-11-04T16:36:52.655Z,10.90
2018-11-04T16:39:20.398Z,10.80
2018-11-04T16:41:48.137Z,10.80
2018-11-04T16:44:16.984Z,10.60
2018-11-04T16:46:45.174Z,10.50
2018-11-04T16:49:12.953Z,10.50
2018-11-04T16:51:40.794Z,10.40
2018-11-04T16:54:08.710Z,10.30
2018-11-04T16:56:36.738Z,10.30
2018-11-04T16:59:04.864Z,10.20
2018-11-04T17:01:32.613Z,10.10
2018-11-04T17:04:00.472Z,10.20
2018-11-04T17:06:28.227Z,10.10
2018-11-04T17:08:56.006Z,10.00
2018-11-04T17:11:23.776Z,9.90
2018-11-04T17:13:51.558Z,9.80
2018-11-04T17:16:19.289Z,9.80
2018-11-04T17:18:47.075Z,9.70
2018-11-04T17:21:14.866Z,9.70
2018-11-04T17:23:42.662Z,9.60
2018-11-04T17:26:12.330Z,9.60
2018-11-04T17:28:40.389Z,9.50
2018-11-04T17:31:08.168Z,9.40
2018-11-04T17:33:37.772Z,9.40
2018-11-04T17:36:07.546Z,9.30
2018-11-04T17:38:36.918Z,9.30
2018-11-04T17:41:06.921Z,9.20
2018-11-04T17:43:36.306Z,9.20
2018-11-04T17:46:05.632Z,9.20
2018-11-04T17:48:34.813Z,9.20
2018-11-04T17:51:04.607Z,9.20
2018-11-04T17:53:33.591Z,9.10
2018-11-04T17:56:03.585Z,9.00
2018-11-04T17:58:32.594Z,9.00
2018-11-04T18:01:02.818Z,9.20
2018-11-04T18:03:31.346Z,9.10
2018-11-04T18:05:59.671Z,9.20
2018-11-04T18:08:29.055Z,9.00
2018-11-04T18:10:57.656Z,8.90
2018-11-04T18:13:25.776Z,8.90
2018-11-04T18:15:53.707Z,8.90
2018-11-04T18:18:22.167Z,8.90
2018-11-04T18:20:50.773Z,8.90
2018-11-04T18:23:18.477Z,8.80
2018-11-04T18:25:46.173Z,8.80
2018-11-04T18:28:15.323Z,8.80
2018-11-04T18:30:43.101Z,8.70
2018-11-04T18:33:10.846Z,8.70
2018-11-04T18:35:39.485Z,8.70
2018-11-04T18:38:11.629Z,8.60
2018-11-04T18:40:39.378Z,8.50
2018-11-04T18:43:07.122Z,8.50
2018-11-04T18:45:34.817Z,8.50
2018-11-04T18:48:03.686Z,8.50
2018-11-04T18:50:31.513Z,8.50
2018-11-04T18:52:59.162Z,8.60
2018-11-04T18:55:26.901Z,8.50
2018-11-04T18:57:54.616Z,8.40
2018-11-04T19:00:22.356Z,8.40
2018-11-04T19:02:50.180Z,8.30
2018-11-04T19:05:17.947Z,8.20
2018-11-04T19:07:48.218Z,8.20
2018-11-04T19:10:17.871Z,8.30
2018-11-04T19:12:47.478Z,8.20
2018-11-04T19:15:15.273Z,8.10
2018-11-04T19:17:44.401Z,8.00
2018-11-04T19:20:13.606Z,7.90
2018-11-04T19:22:41.922Z,8.00
2018-11-04T19:25:12.325Z,8.00
2018-11-04T19:27:41.394Z,8.00
2018-11-04T19:30:11.414Z,8.00
2018-11-04T19:32:40.150Z,7.80
2018-11-04T19:35:09.298Z,7.70
2018-11-04T19:37:37.126Z,7.60
2018-11-04T19:40:05.950Z,7.50
2018-11-04T19:42:33.793Z,7.70
2018-11-04T19:45:01.457Z,7.70
2018-11-04T19:47:29.173Z,7.70
2018-11-04T19:49:58.381Z,7.70
2018-11-04T19:52:26.089Z,7.80
2018-11-04T19:54:53.821Z,7.80
2018-11-04T19:57:25.824Z,7.70
2018-11-04T19:59:53.620Z,7.50
2018-11-04T20:02:21.320Z,7.50
2018-11-04T20:04:49.030Z,7.70
2018-11-04T20:07:16.741Z,7.70
2018-11-04T20:09:44.469Z,7.60
2018-11-04T20:12:17.554Z,7.50
2018-11-04T20:14:45.485Z,7.50
2018-11-04T20:17:13.233Z,7.40
2018-11-04T20:19:46.497Z,7.30
2018-11-04T20:22:14.137Z,7.30
2018-11-04T20:25:50.280Z,7.20
2018-11-04T20:28:18.021Z,7.30
2018-11-04T20:30:45.742Z,7.30
2018-11-04T20:33:14.701Z,7.30
2018-11-04T20:35:42.421Z,7.20
2018-11-04T20:38:10.154Z,7.30
2018-11-04T20:40:43.229Z,7.20
2018-11-04T20:43:10.973Z,7.20
2018-11-04T20:45:38.685Z,7.20
2018-11-04T20:48:12.138Z,7.10
2018-11-04T20:50:45.372Z,7.10
2018-11-04T20:53:13.129Z,7.00
2018-11-04T20:55:46.287Z,7.10
2018-11-04T20:58:14.137Z,7.00
2018-11-04T21:00:41.786Z,7.00
2018-11-04T21:03:09.577Z,7.00
2018-11-04T21:05:37.274Z,7.00
2018-11-04T21:08:05.512Z,6.90
2018-11-04T21:10:33.217Z,6.90
2018-11-04T21:13:00.967Z,7.00
2018-11-04T21:15:29.038Z,7.00
2018-11-04T21:17:56.725Z,7.10
2018-11-04T21:20:24.525Z,7.00
2018-11-04T21:22:52.261Z,7.10
2018-11-04T21:25:20.102Z,7.20
2018-11-04T21:27:47.884Z,7.20
2018-11-04T21:30:15.618Z,7.30
2018-11-04T21:32:43.971Z,7.40
2018-11-04T21:35:11.729Z,7.30
2018-11-04T21:37:39.608Z,7.30
2018-11-04T21:40:08.128Z,7.30
2018-11-04T21:42:36.085Z,7.40
2018-11-04T21:45:03.846Z,7.40
2018-11-04T21:47:31.677Z,7.40
2018-11-04T21:50:00.193Z,7.40
2018-11-04T21:52:27.929Z,7.50
2018-11-04T21:54:55.666Z,7.50
2018-11-04T21:57:23.386Z,7.50
2018-11-04T21:59:51.128Z,7.50
2018-11-04T22:02:18.881Z,7.50
2018-11-04T22:04:46.795Z,7.50
2018-11-04T22:07:14.375Z,7.60
2018-11-04T22:09:42.145Z,7.70
2018-11-04T22:12:10.718Z,7.70
2018-11-04T22:14:38.497Z,7.80
2018-11-04T22:17:06.366Z,7.90
2018-11-04T22:19:34.178Z,7.90
2018-11-04T22:22:01.917Z,8.00
2018-11-04T22:24:29.731Z,8.10
2018-11-04T22:26:57.565Z,8.10
2018-11-04T22:29:25.350Z,8.10
2018-11-04T22:31:53.153Z,8.10
2018-11-04T22:34:20.904Z,8.10
2018-11-04T22:36:48.718Z,8.20
2018-11-04T22:39:16.478Z,8.30
2018-11-04T22:41:44.234Z,8.40
2018-11-04T22:44:11.978Z,8.40
2018-11-04T22:46:40.219Z,8.30
2018-11-04T22:49:08.020Z,8.30
2018-11-04T22:51:36.439Z,8.30
2018-11-04T22:54:04.477Z,8.30
2018-11-04T22:56:32.333Z,8.40
2018-11-04T22:59:00.161Z,8.40
2018-11-04T23:01:27.991Z,8.40
2018-11-04T23:03:55.753Z,8.50
2018-11-04T23:06:23.569Z,8.50
2018-11-04T23:08:51.335Z,8.50
2018-11-04T23:11:19.719Z,8.50
2018-11-04T23:13:48.417Z,8.60
2018-11-04T23:16:16.208Z,8.60
2018-11-04T23:18:44.166Z,8.70
2018-11-04T23:21:11.785Z,8.70
2018-11-04T23:23:39.559Z,8.70
2018-11-04T23:26:07.726Z,8.70
2018-11-04T23:28:35.523Z,8.70
2018-11-04T23:31:03.386Z,8.70
2018-11-04T23:33:31.215Z,8.70
2018-11-04T23:35:58.945Z,8.60
2018-11-04T23:38:26.693Z,8.60
2018-11-04T23:40:54.508Z,8.70
2018-11-04T23:43:22.350Z,8.70
2018-11-04T23:45:50.109Z,8.70
2018-11-04T23:48:17.923Z,8.70
2018-11-04T23:50:45.664Z,8.80
2018-11-04T23:53:13.469Z,8.80
2018-11-04T23:55:41.235Z,8.80
2018-11-04T23:58:10.549Z,8.80
